Time;durP1;ratioP1;P1;durP2;ratioP2;P2;SDS_P1;SDS_P2;PMS_P1;PMS_P2;Temp;Humidity;BMP_temperature;BMP_pressure;BME280_temperature;BME280_humidity;BME280_pressure;Samples;Min_cycle;Max_cycle;Signal;HPM_P1;HPM_P2
2023/10/02 00:01:23;;;;;;;4.55;2.47;;;19.00;75.70;;;;;;5030315;28;20025;-63
2023/10/02 00:04:16;;;;;;;4.97;2.15;;;19.00;75.70;;;;;;5026047;28;20364;-63
2023/10/02 00:06:36;;;;;;;5.03;2.28;;;19.00;75.80;;;;;;5030190;28;20132;-64
2023/10/02 00:09:05;;;;;;;4.65;2.15;;;19.00;75.90;;;;;;5030216;28;20034;-63
2023/10/02 00:11:39;;;;;;;3.10;1.77;;;19.00;75.80;;;;;;5029649;28;20040;-63
2023/10/02 00:14:18;;;;;;;5.85;1.98;;;18.90;75.80;;;;;;5027628;28;20029;-63
2023/10/02 00:17:04;;;;;;;5.00;3.17;;;18.90;75.70;;;;;;5030478;28;20040;-63
2023/10/02 00:19:37;;;;;;;6.10;2.92;;;18.90;75.80;;;;;;5028971;28;20018;-64
2023/10/02 00:22:34;;;;;;;5.25;2.47;;;18.90;75.80;;;;;;5029648;28;20392;-64
2023/10/02 00:24:58;;;;;;;5.13;2.25;;;18.90;75.90;;;;;;5025839;28;20673;-63
2023/10/02 00:27:24;;;;;;;4.90;2.60;;;18.80;76.00;;;;;;5029722;28;20029;-64
2023/10/02 00:29:57;;;;;;;7.32;2.60;;;18.80;76.10;;;;;;5029313;28;20033;-64
2023/10/02 00:32:26;;;;;;;4.30;2.33;;;18.80;76.10;;;;;;5030203;28;20037;-64
2023/10/02 00:34:53;;;;;;;6.20;2.30;;;18.70;76.00;;;;;;5030136;28;20045;-64
2023/10/02 00:37:19;;;;;;;6.88;2.72;;;18.70;76.30;;;;;;5030087;28;20033;-64
2023/10/02 00:39:51;;;;;;;5.55;2.70;;;18.70;76.70;;;;;;5026220;28;20583;-63
2023/10/02 00:42:24;;;;;;;4.13;2.28;;;18.70;76.10;;;;;;5029811;28;20038;-64
2023/10/02 00:44:54;;;;;;;5.20;3.03;;;18.70;76.10;;;;;;5040990;28;20118;-63
2023/10/02 00:47:45;;;;;;;5.55;2.85;;;18.70;76.30;;;;;;5068920;28;20024;-63
2023/10/02 00:50:18;;;;;;;5.78;2.22;;;18.70;76.30;;;;;;5067498;28;20024;-64
2023/10/02 00:52:50;;;;;;;4.00;2.38;;;18.60;76.30;;;;;;5065057;28;20033;-64
2023/10/02 00:55:24;;;;;;;6.90;2.55;;;18.60;76.40;;;;;;5069313;28;20033;-64
2023/10/02 00:57:53;;;;;;;7.60;2.88;;;18.60;76.40;;;;;;5061056;28;20040;-64
2023/10/02 01:00:21;;;;;;;5.32;2.10;;;18.60;76.50;;;;;;5062568;28;20029;-63
2023/10/02 01:02:57;;;;;;;4.30;2.03;;;18.60;76.40;;;;;;5069251;28;20491;-64
2023/10/02 01:05:31;;;;;;;3.47;2.30;;;18.60;76.40;;;;;;5061156;28;20383;-63
2023/10/02 01:07:58;;;;;;;5.47;2.65;;;18.60;76.50;;;;;;5053402;28;20384;-63
2023/10/02 01:10:29;;;;;;;3.70;2.10;;;18.60;76.50;;;;;;5066230;28;20093;-69
2023/10/02 01:13:05;;;;;;;4.47;2.30;;;18.50;76.40;;;;;;5065481;28;20031;-69
2023/10/02 01:15:31;;;;;;;4.43;2.58;;;18.60;76.50;;;;;;5062702;28;20021;-69
2023/10/02 01:20:53;;;;;;;5.70;2.05;;;18.50;76.50;;;;;;5064646;28;20056;-69
2023/10/02 01:23:25;;;;;;;3.63;1.85;;;18.50;76.60;;;;;;5060266;28;20479;-69
2023/10/02 01:25:50;;;;;;;;;;;18.50;76.50;;;;;;5061307;28;20108;-70
2023/10/02 01:28:20;;;;;;;4.97;2.40;;;18.50;76.60;;;;;;5060484;28;20042;-69
2023/10/02 01:30:47;;;;;;;3.38;2.35;;;18.50;76.70;;;;;;5059544;28;20036;-69
2023/10/02 01:33:22;;;;;;;4.28;2.00;;;18.50;76.70;;;;;;5055972;28;20535;-64
2023/10/02 01:35:56;;;;;;;2.78;2.20;;;18.50;76.70;;;;;;5062051;28;20028;-64
2023/10/02 01:38:33;;;;;;;4.53;2.25;;;18.50;76.70;;;;;;5048052;28;20477;-64
2023/10/02 01:41:08;;;;;;;3.78;2.08;;;18.50;76.80;;;;;;5056827;28;20023;-69
2023/10/02 01:43:39;;;;;;;4.68;2.13;;;18.40;76.90;;;;;;5059637;28;20074;-69
2023/10/02 01:46:06;;;;;;;4.15;2.60;;;18.50;77.00;;;;;;5044929;28;20044;-69
2023/10/02 01:48:44;;;;;;;5.75;2.60;;;18.40;77.10;;;;;;5070237;28;20090;-70
2023/10/02 01:51:41;;;;;;;8.73;2.80;;;18.40;77.00;;;;;;5066537;28;20086;-68
2023/10/02 01:54:15;;;;;;;5.65;2.80;;;18.40;77.10;;;;;;5060118;28;20551;-69
2023/10/02 01:56:47;;;;;;;8.93;3.35;;;18.30;77.30;;;;;;5066482;28;20021;-69
2023/10/02 01:59:19;;;;;;;7.30;3.08;;;18.30;77.30;;;;;;5061511;28;20029;-69
2023/10/02 02:01:52;;;;;;;6.70;3.90;;;18.30;77.20;;;;;;5071668;28;20033;-69
2023/10/02 02:04:33;;;;;;;7.18;2.92;;;18.30;77.20;;;;;;5061828;28;20083;-63
2023/10/02 02:07:00;;;;;;;5.15;2.50;;;18.30;77.30;;;;;;5045942;28;20032;-64
2023/10/02 02:09:30;;;;;;;4.53;2.20;;;18.30;77.40;;;;;;5069610;28;20410;-69
2023/10/02 02:12:13;;;;;;;5.30;2.38;;;18.30;77.40;;;;;;5065767;28;20464;-69
2023/10/02 02:14:50;;;;;;;3.60;2.38;;;18.30;77.40;;;;;;5049940;28;20044;-69
2023/10/02 02:17:24;;;;;;;5.10;3.08;;;18.20;77.30;;;;;;5070961;28;20074;-69
2023/10/02 02:19:50;;;;;;;5.85;2.92;;;18.20;77.40;;;;;;5061571;28;20392;-69
2023/10/02 02:22:23;;;;;;;4.93;2.90;;;18.20;77.50;;;;;;5051719;28;20377;-64
2023/10/02 02:24:51;;;;;;;4.13;1.80;;;18.20;77.40;;;;;;5070598;28;20021;-64
2023/10/02 02:27:19;;;;;;;3.85;2.15;;;18.20;77.40;;;;;;5071176;28;20032;-64
2023/10/02 02:29:56;;;;;;;4.57;2.45;;;18.20;77.30;;;;;;5053239;28;20427;-63
2023/10/02 02:35:09;;;;;;;5.18;2.80;;;18.20;77.50;;;;;;5071639;28;20105;-69
2023/10/02 02:37:35;;;;;;;4.65;2.60;;;18.10;77.60;;;;;;5066469;28;20028;-69
2023/10/02 02:42:50;;;;;;;4.82;2.83;;;18.10;77.70;;;;;;5071592;28;20047;-69
2023/10/02 02:45:28;;;;;;;5.43;2.85;;;18.10;77.80;;;;;;5070253;28;20044;-69
2023/10/02 02:48:03;;;;;;;7.70;3.30;;;18.00;77.70;;;;;;5069646;28;20031;-63
2023/10/02 02:50:33;;;;;;;5.15;2.80;;;18.00;77.80;;;;;;5065377;28;20438;-69
2023/10/02 02:53:17;;;;;;;3.30;2.50;;;18.00;78.50;;;;;;5062764;28;20522;-69
2023/10/02 02:55:43;;;;;;;4.68;2.85;;;17.90;77.90;;;;;;5070357;28;20028;-69
2023/10/02 02:58:09;;;;;;;4.85;2.50;;;17.90;78.10;;;;;;5065913;28;20028;-69
2023/10/02 03:00:39;;;;;;;6.85;3.15;;;17.90;78.20;;;;;;5068170;28;20108;-69
2023/10/02 03:05:52;;;;;;;5.05;2.90;;;17.80;78.20;;;;;;5068007;28;20031;-69
2023/10/02 03:08:19;;;;;;;4.72;2.05;;;17.80;78.10;;;;;;5067801;28;20040;-69
2023/10/02 03:10:57;;;;;;;8.52;3.25;;;17.80;78.10;;;;;;5068890;28;20028;-69
2023/10/02 03:13:22;;;;;;;3.17;1.70;;;17.90;78.00;;;;;;5061187;28;20056;-69
2023/10/02 03:15:51;;;;;;;2.67;2.05;;;17.80;77.90;;;;;;5067411;28;20158;-69
2023/10/02 03:18:36;;;;;;;4.97;2.25;;;17.80;77.80;;;;;;5049842;28;20040;-69
2023/10/02 03:23:38;;;;;;;6.07;3.28;;;17.70;78.10;;;;;;5067288;28;20411;-69
2023/10/02 03:26:27;;;;;;;4.28;2.42;;;17.70;78.20;;;;;;5050129;28;20032;-69
2023/10/02 03:29:02;;;;;;;5.05;2.83;;;17.70;78.10;;;;;;5067396;28;20120;-69
2023/10/02 03:32:12;;;;;;;6.88;2.05;;;17.70;78.10;;;;;;5067957;28;20098;-69
2023/10/02 03:36:59;;;;;;;5.30;2.90;;;17.70;78.20;;;;;;5066320;28;19920;-69
2023/10/02 03:42:21;;;;;;;4.47;2.97;;;17.70;78.00;;;;;;5060091;28;20543;-68
2023/10/02 03:44:56;;;;;;;5.63;3.00;;;17.70;78.10;;;;;;5064730;28;20033;-63
2023/10/02 03:47:23;;;;;;;4.45;2.30;;;17.70;78.00;;;;;;5062839;28;20166;-63
2023/10/02 03:49:50;;;;;;;6.97;3.25;;;17.70;78.10;;;;;;5060336;28;20024;-63
2023/10/02 03:52:17;;;;;;;5.93;2.42;;;17.60;78.10;;;;;;5060412;28;20033;-64
2023/10/02 03:54:46;;;;;;;6.43;2.47;;;17.60;78.00;;;;;;5059120;28;20036;-68
2023/10/02 03:57:37;;;;;;;4.32;2.50;;;17.60;78.10;;;;;;5044962;28;20028;-68
2023/10/02 04:02:47;;;;;;;5.65;3.03;;;17.50;78.20;;;;;;5066723;28;20039;-69
2023/10/02 04:05:32;;;;;;;6.15;2.47;;;17.50;78.20;;;;;;5068430;28;20413;-68
2023/10/02 04:08:22;;;;;;;5.07;2.10;;;17.50;78.30;;;;;;5044678;28;20467;-68
2023/10/02 04:10:55;;;;;;;4.80;2.55;;;17.50;78.30;;;;;;5066450;28;20106;-69
2023/10/02 04:13:25;;;;;;;4.13;2.33;;;17.40;78.30;;;;;;5062241;28;20059;-68
2023/10/02 04:16:28;;;;;;;3.25;2.05;;;17.40;78.30;;;;;;5046973;28;20029;-63
2023/10/02 04:18:49;;;;;;;7.57;3.30;;;17.40;78.40;;;;;;5065823;28;20037;-63
2023/10/02 04:21:19;;;;;;;5.40;2.70;;;17.40;78.80;;;;;;5048743;28;20111;-63
2023/10/02 04:23:45;;;;;;;12.65;3.17;;;17.40;78.40;;;;;;5050346;28;20025;-64
2023/10/02 04:26:22;;;;;;;7.68;3.60;;;17.30;78.30;;;;;;5068479;28;20098;-69
2023/10/02 04:28:49;;;;;;;4.55;2.42;;;17.30;78.40;;;;;;5044288;28;20119;-69
2023/10/02 04:31:21;;;;;;;8.00;2.35;;;17.30;78.50;;;;;;5047310;28;20044;-69
2023/10/02 04:33:53;;;;;;;5.38;3.08;;;17.30;78.40;;;;;;5066968;28;20109;-69
2023/10/02 04:36:30;;;;;;;3.28;2.10;;;17.30;78.30;;;;;;5066136;28;20032;-69
2023/10/02 04:38:57;;;;;;;4.75;2.13;;;17.30;78.30;;;;;;5051049;28;20047;-64
2023/10/02 04:41:26;;;;;;;3.50;1.92;;;17.20;78.30;;;;;;5065403;28;20040;-64
2023/10/02 04:43:57;;;;;;;3.10;2.03;;;17.20;78.30;;;;;;5059372;28;20029;-63
2023/10/02 04:46:28;;;;;;;7.87;2.93;;;17.30;78.20;;;;;;5065751;28;20119;-63
2023/10/02 04:48:59;;;;;;;4.60;2.65;;;17.30;78.30;;;;;;5064909;28;20051;-69
2023/10/02 04:51:28;;;;;;;2.80;1.70;;;17.30;78.30;;;;;;5068231;28;20040;-69
2023/10/02 04:53:56;;;;;;;6.20;2.90;;;17.20;78.20;;;;;;5062528;28;20044;-69
2023/10/02 04:56:24;;;;;;;4.60;2.47;;;17.20;78.20;;;;;;5066753;28;20028;-69
2023/10/02 04:58:51;;;;;;;4.60;2.03;;;17.20;78.20;;;;;;5066144;28;20488;-69
2023/10/02 05:01:25;;;;;;;5.28;2.63;;;17.20;78.30;;;;;;5065196;28;20483;-70
2023/10/02 05:03:55;;;;;;;3.33;2.42;;;17.20;78.30;;;;;;5062523;28;20029;-64
2023/10/02 05:11:53;;;;;;;3.75;2.08;;;17.20;78.40;;;;;;5061947;28;20033;-63
2023/10/02 05:14:26;;;;;;;5.72;3.28;;;17.10;78.30;;;;;;5048882;28;20033;-64
2023/10/02 05:19:57;;;;;;;6.90;3.22;;;17.10;78.40;;;;;;5058293;28;20081;-69
2023/10/02 05:22:27;;;;;;;6.00;2.35;;;17.10;78.40;;;;;;5059300;28;20119;-69
2023/10/02 05:25:04;;;;;;;3.67;2.03;;;17.10;78.40;;;;;;5059504;28;20039;-69
2023/10/02 05:27:33;;;;;;;5.68;2.58;;;17.10;78.30;;;;;;5057950;28;20119;-69
2023/10/02 05:30:12;;;;;;;7.30;2.72;;;17.00;78.30;;;;;;5060464;28;20363;-69
2023/10/02 05:32:39;;;;;;;4.93;2.17;;;17.00;78.40;;;;;;5065004;28;20428;-63
2023/10/02 05:37:46;;;;;;;3.67;2.42;;;17.00;78.60;;;;;;5068856;28;20152;-64
2023/10/02 05:42:53;;;;;;;4.38;2.58;;;17.00;78.60;;;;;;5060377;28;20021;-63
2023/10/02 05:45:37;;;;;;;9.80;3.15;;;17.00;78.60;;;;;;5067476;28;20596;-63
2023/10/02 05:48:07;;;;;;;3.85;1.92;;;17.00;78.50;;;;;;5060603;28;20027;-63
2023/10/02 05:50:34;;;;;;;6.20;2.83;;;16.90;78.70;;;;;;5060319;28;20035;-63
2023/10/02 05:53:00;;;;;;;5.97;2.90;;;16.90;78.80;;;;;;5062052;28;20104;-63
2023/10/02 05:55:25;;;;;;;6.53;2.97;;;16.90;78.80;;;;;;5062405;28;20115;-63
2023/10/02 05:57:54;;;;;;;4.35;2.58;;;17.00;79.00;;;;;;5067925;28;20028;-63
2023/10/02 06:00:20;;;;;;;5.90;2.42;;;17.00;79.00;;;;;;5049518;28;20359;-63
2023/10/02 06:02:58;;;;;;;6.20;2.53;;;17.00;79.00;;;;;;5065998;28;20024;-63
2023/10/02 06:05:24;;;;;;;3.72;2.45;;;17.00;78.90;;;;;;5044843;28;20025;-63
2023/10/02 06:07:51;;;;;;;7.13;2.95;;;17.00;78.90;;;;;;5040073;28;20033;-63
2023/10/02 06:10:26;;;;;;;6.35;3.10;;;17.10;79.00;;;;;;5060261;28;20059;-63
2023/10/02 06:13:02;;;;;;;3.05;1.77;;;17.00;79.00;;;;;;5038634;28;20056;-69
2023/10/02 06:15:49;;;;;;;5.93;3.17;;;17.10;79.10;;;;;;5058717;28;20025;-69
2023/10/02 06:18:24;;;;;;;13.00;3.45;;;17.10;79.10;;;;;;5051553;28;20048;-69
2023/10/02 06:21:03;;;;;;;6.95;2.85;;;17.20;79.20;;;;;;5063393;28;20479;-69
2023/10/02 06:23:45;;;;;;;5.55;2.08;;;17.20;79.20;;;;;;5063927;28;20032;-69
2023/10/02 06:26:11;;;;;;;3.80;2.38;;;17.20;79.30;;;;;;5065402;28;20039;-69
2023/10/02 06:28:37;;;;;;;5.50;2.65;;;17.30;79.30;;;;;;5064775;28;20033;-69
2023/10/02 06:31:06;;;;;;;4.28;2.17;;;17.30;79.30;;;;;;5061463;28;20045;-69
2023/10/02 06:33:36;;;;;;;6.15;3.35;;;17.40;79.40;;;;;;5068975;28;20032;-69
2023/10/02 06:36:05;;;;;;;5.85;3.15;;;17.40;79.50;;;;;;5048357;28;20047;-69
2023/10/02 06:38:31;;;;;;;4.57;2.38;;;17.40;79.50;;;;;;5064665;28;20137;-69
2023/10/02 06:40:59;;;;;;;6.65;3.30;;;17.50;79.50;;;;;;5062848;28;20029;-63
2023/10/02 06:43:29;;;;;;;5.70;2.78;;;17.60;79.50;;;;;;5065813;28;20112;-63
2023/10/02 06:46:13;;;;;;;5.07;2.50;;;17.60;79.60;;;;;;5049131;28;20052;-69
2023/10/02 06:48:43;;;;;;;4.38;2.50;;;17.70;79.80;;;;;;5062834;28;20031;-69
2023/10/02 06:51:11;;;;;;;6.57;3.75;;;17.80;79.90;;;;;;5068505;28;20040;-69
2023/10/02 06:53:40;;;;;;;5.13;2.60;;;17.80;80.00;;;;;;5072297;28;20028;-69
2023/10/02 06:56:13;;;;;;;10.48;3.30;;;17.90;80.00;;;;;;5045202;28;20031;-69
2023/10/02 06:58:56;;;;;;;3.83;3.00;;;18.00;80.20;;;;;;5053496;28;20036;-69
2023/10/02 07:01:30;;;;;;;7.82;3.17;;;18.00;80.10;;;;;;5069983;28;20024;-69
2023/10/02 07:03:56;;;;;;;3.72;2.22;;;18.10;80.30;;;;;;5070399;28;20051;-69
2023/10/02 07:06:26;;;;;;;4.95;2.75;;;18.20;80.30;;;;;;5061008;28;20242;-63
2023/10/02 07:09:11;;;;;;;6.90;3.25;;;18.20;80.50;;;;;;5064376;28;20029;-63
2023/10/02 07:11:45;;;;;;;5.32;2.83;;;18.30;80.40;;;;;;5064427;28;20036;-63
2023/10/02 07:14:13;;;;;;;8.45;3.15;;;18.40;80.50;;;;;;5060584;28;20497;-63
2023/10/02 07:16:39;;;;;;;6.57;3.55;;;18.50;80.50;;;;;;5061647;28;20109;-63
2023/10/02 07:19:05;;;;;;;7.13;3.35;;;18.60;80.30;;;;;;5062411;28;20044;-63
2023/10/02 07:21:31;;;;;;;5.60;3.10;;;18.70;80.20;;;;;;5061226;28;20029;-63
2023/10/02 07:23:58;;;;;;;12.32;3.65;;;18.80;80.20;;;;;;5070780;28;20470;-70
2023/10/02 07:29:08;;;;;;;5.72;3.45;;;19.00;80.30;;;;;;5057701;28;20048;-64
2023/10/02 07:31:34;;;;;;;9.07;4.13;;;19.00;80.10;;;;;;5067406;28;20024;-66
2023/10/02 07:34:01;;;;;;;7.13;2.47;;;19.10;80.00;;;;;;5068262;28;20058;-67
2023/10/02 07:36:26;;;;;;;7.18;3.28;;;19.10;80.20;;;;;;5068885;28;20391;-66
2023/10/02 07:38:54;;;;;;;6.53;3.20;;;19.20;80.20;;;;;;5061470;28;20024;-67
2023/10/02 07:41:23;;;;;;;6.63;2.83;;;19.30;80.10;;;;;;5059305;28;20437;-64
2023/10/02 07:43:53;;;;;;;6.90;3.53;;;19.30;80.10;;;;;;5065126;28;20108;-67
2023/10/02 07:46:21;;;;;;;7.13;3.13;;;19.40;80.00;;;;;;5061558;28;20056;-70
2023/10/02 07:49:04;;;;;;;11.15;3.42;;;19.40;80.00;;;;;;5064282;28;20441;-70
2023/10/02 07:51:37;;;;;;;5.05;2.60;;;19.50;80.00;;;;;;5063085;28;20104;-70
2023/10/02 07:54:03;;;;;;;7.75;3.30;;;19.60;79.80;;;;;;5064909;28;20028;-70
2023/10/02 07:56:29;;;;;;;6.95;2.60;;;19.60;79.70;;;;;;5063269;28;20035;-70
2023/10/02 07:59:01;;;;;;;5.85;2.83;;;19.70;79.40;;;;;;5065512;28;20476;-70
2023/10/02 08:01:27;;;;;;;10.88;3.75;;;19.80;79.20;;;;;;5058952;28;20327;-70
2023/10/02 08:03:56;;;;;;;10.18;4.20;;;19.90;79.30;;;;;;5062471;28;20032;-65
2023/10/02 08:06:33;;;;;;;7.60;3.22;;;19.80;79.30;;;;;;5068145;28;20048;-64
2023/10/02 08:11:53;;;;;;;9.63;3.30;;;20.00;79.30;;;;;;5063795;28;20086;-65
2023/10/02 08:14:38;;;;;;;5.47;2.72;;;20.00;79.10;;;;;;5063656;28;20105;-70
2023/10/02 08:17:27;;;;;;;5.35;3.17;;;20.10;79.00;;;;;;5066600;28;20031;-69
2023/10/02 08:19:55;;;;;;;5.45;3.08;;;20.10;78.80;;;;;;5064868;28;20033;-69
2023/10/02 08:22:23;;;;;;;7.68;2.63;;;20.20;78.70;;;;;;5058711;28;20032;-69
2023/10/02 08:24:52;;;;;;;5.30;2.80;;;20.30;78.60;;;;;;5063361;28;20059;-69
2023/10/02 08:27:18;;;;;;;7.55;3.30;;;20.30;78.50;;;;;;5064307;28;20544;-69
2023/10/02 08:29:44;;;;;;;7.75;3.13;;;20.30;78.50;;;;;;5065776;28;20074;-64
2023/10/02 08:32:11;;;;;;;8.80;3.45;;;20.40;78.50;;;;;;5069110;28;20522;-65
2023/10/02 08:34:37;;;;;;;5.45;2.47;;;20.50;78.40;;;;;;5067749;28;20055;-65
2023/10/02 08:37:07;;;;;;;7.70;4.30;;;20.50;78.30;;;;;;5065025;28;20415;-64
2023/10/02 08:39:37;;;;;;;6.88;2.65;;;20.60;78.30;;;;;;5042461;28;20037;-65
2023/10/02 08:42:09;;;;;;;4.30;2.10;;;20.70;78.10;;;;;;5061574;28;20610;-65
2023/10/02 08:44:40;;;;;;;12.38;4.43;;;20.80;77.90;;;;;;5062594;28;20028;-64
2023/10/02 08:47:24;;;;;;;9.37;4.80;;;20.90;77.60;;;;;;5063397;28;20055;-65
2023/10/02 08:50:01;;;;;;;8.10;4.35;;;21.10;77.50;;;;;;5065826;28;20032;-64
2023/10/02 08:52:38;;;;;;;7.95;3.80;;;21.20;77.10;;;;;;5064342;28;20111;-64
2023/10/02 08:55:51;;;;;;;6.22;3.67;;;21.30;76.60;;;;;;5068827;28;20032;-64
2023/10/02 08:58:21;;;;;;;10.00;3.90;;;21.50;76.20;;;;;;5064188;28;20082;-64
2023/10/02 09:03:42;;;;;;;8.43;3.55;;;21.60;76.00;;;;;;5062252;28;20683;-65
2023/10/02 09:09:16;;;;;;;6.13;2.90;;;21.60;76.00;;;;;;5060907;28;20051;-70
2023/10/02 09:11:45;;;;;;;7.68;4.10;;;21.60;75.90;;;;;;5064840;28;20021;-70
2023/10/02 09:16:47;;;;;;;9.25;4.82;;;21.60;75.70;;;;;;5065178;28;20041;-70
2023/10/02 09:19:30;;;;;;;8.52;3.65;;;21.60;75.80;;;;;;5063693;28;20128;-70
2023/10/02 09:22:10;;;;;;;15.07;5.00;;;21.50;75.80;;;;;;5057229;28;20040;-70
2023/10/02 09:24:58;;;;;;;12.45;5.00;;;21.50;75.70;;;;;;5057415;28;20091;-70
2023/10/02 09:27:28;;;;;;;6.85;3.60;;;21.50;75.80;;;;;;5042384;28;20075;-71
2023/10/02 09:32:47;;;;;;;7.88;3.83;;;21.60;75.90;;;;;;5066581;28;20052;-69
2023/10/02 09:38:07;;;;;;;7.68;3.72;;;21.60;75.70;;;;;;5046234;28;20528;-69
2023/10/02 09:43:24;;;;;;;6.00;3.03;;;21.70;75.70;;;;;;5064714;28;20071;-69
2023/10/02 09:45:53;;;;;;;5.68;3.00;;;21.70;75.70;;;;;;5042372;28;20075;-64
2023/10/02 09:48:57;;;;;;;4.28;2.15;;;21.80;75.60;;;;;;5060419;28;20424;-64
2023/10/02 09:51:26;;;;;;;6.47;3.25;;;21.90;75.50;;;;;;5048171;28;20036;-64
2023/10/02 09:54:17;;;;;;;6.57;2.80;;;22.00;75.50;;;;;;5054659;28;20098;-64
2023/10/02 09:57:05;;;;;;;11.68;3.30;;;22.10;75.30;;;;;;5047243;28;20033;-64
2023/10/02 09:59:45;;;;;;;5.57;2.50;;;22.10;75.10;;;;;;5055150;28;20020;-64
2023/10/02 10:02:57;;;;;;;4.18;2.03;;;22.20;75.10;;;;;;5061105;28;20462;-64
2023/10/02 10:05:00;;;;;;;11.93;3.67;;;22.30;74.90;;;;;;5052392;28;20086;-64
2023/10/02 10:07:52;;;;;;;9.57;3.80;;;22.40;74.60;;;;;;5064982;28;20464;-63
2023/10/02 10:10:49;;;;;;;8.57;3.90;;;22.60;74.40;;;;;;5062854;28;20029;-64
2023/10/02 10:13:32;;;;;;;3.92;2.53;;;22.60;74.10;;;;;;5063879;28;20059;-69
2023/10/02 10:16:18;;;;;;;;;;;22.80;74.10;;;;;;5063896;28;20037;-69
2023/10/02 10:21:56;;;;;;;8.60;4.25;;;23.10;73.10;;;;;;5064973;28;20041;-69
2023/10/02 10:24:57;;;;;;;7.70;4.13;;;23.00;72.60;;;;;;5063214;28;20465;-69
2023/10/02 10:27:38;;;;;;;7.65;2.70;;;23.00;72.60;;;;;;5062228;28;20035;-63
2023/10/02 10:30:19;;;;;;;8.03;3.43;;;22.90;72.90;;;;;;5061803;28;20510;-64
2023/10/02 10:32:45;;;;;;;7.40;3.20;;;23.00;73.10;;;;;;5065512;28;20176;-64
2023/10/02 10:35:35;;;;;;;8.77;3.63;;;23.00;72.50;;;;;;5063054;28;20123;-64
2023/10/02 10:38:07;;;;;;;7.72;3.10;;;22.90;72.30;;;;;;5062037;28;20017;-64
2023/10/02 10:40:46;;;;;;;9.93;3.65;;;23.00;72.50;;;;;;5064146;28;20024;-64
2023/10/02 10:43:14;;;;;;;5.40;3.28;;;23.00;72.50;;;;;;5066745;28;20036;-64
2023/10/02 10:45:40;;;;;;;9.15;3.35;;;23.20;72.40;;;;;;5065396;28;20055;-70
2023/10/02 10:48:21;;;;;;;7.00;3.40;;;23.30;72.00;;;;;;5063739;28;20029;-64
2023/10/02 10:50:59;;;;;;;7.90;3.50;;;23.40;71.80;;;;;;5067045;28;20032;-63
2023/10/02 10:53:28;;;;;;;5.72;2.97;;;23.50;71.80;;;;;;5067899;28;20036;-69
2023/10/02 10:56:03;;;;;;;7.18;3.25;;;23.50;71.80;;;;;;5065843;28;20032;-69
2023/10/02 10:58:35;;;;;;;6.55;3.00;;;23.60;71.70;;;;;;5048981;28;20024;-69
2023/10/02 11:01:05;;;;;;;5.57;2.95;;;23.70;71.70;;;;;;5066994;28;20017;-69
2023/10/02 11:03:31;;;;;;;5.45;2.88;;;24.00;71.30;;;;;;5065162;28;20028;-69
2023/10/02 11:06:04;;;;;;;8.70;3.53;;;24.10;70.80;;;;;;5048645;28;20425;-69
2023/10/02 11:08:37;;;;;;;8.38;3.17;;;24.20;70.00;;;;;;5064940;28;20029;-69
2023/10/02 11:11:11;;;;;;;6.82;3.10;;;24.40;69.90;;;;;;5063962;28;20024;-69
2023/10/02 11:13:50;;;;;;;6.72;3.10;;;24.60;69.50;;;;;;5065613;28;20098;-69
2023/10/02 11:16:31;;;;;;;9.48;3.67;;;24.70;69.00;;;;;;5061698;28;20470;-69
2023/10/02 11:19:21;;;;;;;8.32;2.95;;;24.70;68.60;;;;;;5058940;28;20029;-69
2023/10/02 11:22:23;;;;;;;10.10;3.78;;;24.60;69.00;;;;;;5064752;28;20043;-69
2023/10/02 11:24:52;;;;;;;8.05;3.20;;;24.50;69.10;;;;;;5061229;28;20020;-69
2023/10/02 11:27:20;;;;;;;7.10;3.30;;;24.30;69.80;;;;;;5063613;28;20032;-69
2023/10/02 11:30:02;;;;;;;10.25;3.65;;;24.20;70.00;;;;;;5063427;28;20041;-69
2023/10/02 11:32:53;;;;;;;12.77;3.35;;;24.10;70.20;;;;;;5064845;28;20059;-65
2023/10/02 11:35:29;;;;;;;5.63;2.83;;;24.20;70.40;;;;;;5065659;28;20045;-65
2023/10/02 11:37:56;;;;;;;12.57;3.45;;;24.20;70.30;;;;;;5060644;28;20029;-65
2023/10/02 11:40:25;;;;;;;4.93;2.05;;;24.40;70.10;;;;;;5060749;28;20391;-69
2023/10/02 11:42:51;;;;;;;8.55;3.33;;;24.60;69.80;;;;;;5062646;28;20031;-69
2023/10/02 11:45:17;;;;;;;7.18;3.40;;;24.70;69.40;;;;;;5066877;28;20084;-69
2023/10/02 11:47:43;;;;;;;6.75;2.90;;;24.70;69.20;;;;;;5043749;28;20114;-70
2023/10/02 11:50:09;;;;;;;5.65;2.92;;;24.80;69.40;;;;;;5062514;28;20044;-70
2023/10/02 11:52:35;;;;;;;5.35;3.22;;;24.80;69.40;;;;;;5066655;28;20045;-70
2023/10/02 11:55:01;;;;;;;6.75;3.05;;;24.70;69.20;;;;;;5064106;28;20585;-70
2023/10/02 11:57:26;;;;;;;5.63;2.33;;;24.70;69.50;;;;;;5064768;28;20041;-69
2023/10/02 11:59:52;;;;;;;7.72;2.70;;;24.60;69.80;;;;;;5046243;28;20028;-70
2023/10/02 12:02:18;;;;;;;9.02;3.40;;;24.60;70.00;;;;;;5059628;28;20171;-66
2023/10/02 12:04:44;;;;;;;7.60;3.63;;;24.50;70.20;;;;;;5059308;28;20557;-66
2023/10/02 12:07:12;;;;;;;8.35;3.47;;;24.60;70.10;;;;;;5064003;28;20021;-66
2023/10/02 12:09:38;;;;;;;4.93;2.13;;;24.70;70.20;;;;;;5062238;28;20163;-70
2023/10/02 12:12:04;;;;;;;8.05;3.05;;;24.80;70.20;;;;;;5060262;28;20029;-70
2023/10/02 12:14:31;;;;;;;5.13;3.00;;;25.00;70.20;;;;;;5061309;28;20369;-70
2023/10/02 12:16:57;;;;;;;7.05;2.75;;;25.10;70.00;;;;;;5065093;28;20029;-71
2023/10/02 12:19:28;;;;;;;5.78;2.40;;;25.30;69.80;;;;;;5045652;28;20028;-70
2023/10/02 12:21:55;;;;;;;5.10;2.13;;;25.40;69.50;;;;;;5062997;28;20020;-71
2023/10/02 12:24:21;;;;;;;6.15;3.22;;;25.50;69.50;;;;;;5062549;28;20029;-70
2023/10/02 12:26:48;;;;;;;4.85;2.78;;;25.60;69.40;;;;;;5062015;28;20082;-70
2023/10/02 12:29:14;;;;;;;8.02;2.35;;;25.60;69.20;;;;;;5062036;28;20024;-70
2023/10/02 12:31:40;;;;;;;5.70;2.92;;;25.80;69.00;;;;;;5062717;28;20052;-70
2023/10/02 12:34:06;;;;;;;9.90;3.60;;;25.80;68.60;;;;;;5044698;28;20031;-70
2023/10/02 12:36:32;;;;;;;8.63;3.05;;;25.90;68.70;;;;;;5063213;28;20032;-70
2023/10/02 12:38:58;;;;;;;4.25;2.38;;;26.00;68.70;;;;;;5047481;28;20021;-66
2023/10/02 12:41:26;;;;;;;3.72;2.08;;;26.20;68.60;;;;;;5063916;28;20397;-70
2023/10/02 12:44:02;;;;;;;7.10;3.22;;;26.30;68.10;;;;;;5061168;28;20668;-67
2023/10/02 12:46:29;;;;;;;3.95;2.38;;;26.40;67.50;;;;;;5059649;28;20053;-66
2023/10/02 12:48:57;;;;;;;7.07;2.58;;;26.50;67.70;;;;;;5063924;28;20032;-66
2023/10/02 12:51:24;;;;;;;3.72;2.20;;;26.50;67.70;;;;;;5064117;28;20039;-66
2023/10/02 12:53:51;;;;;;;6.30;3.17;;;26.40;67.80;;;;;;5063956;28;20028;-66
2023/10/02 12:56:20;;;;;;;6.53;2.75;;;26.40;67.80;;;;;;5061443;28;20424;-66
2023/10/02 12:58:50;;;;;;;5.10;2.88;;;26.30;68.00;;;;;;5061903;28;20700;-66
2023/10/02 13:01:24;;;;;;;6.18;3.22;;;26.20;68.00;;;;;;5044305;28;20577;-67
2023/10/02 13:03:51;;;;;;;7.80;3.15;;;26.30;68.30;;;;;;5059302;28;20078;-65
2023/10/02 13:06:17;;;;;;;9.80;3.22;;;26.30;68.20;;;;;;5038994;28;20082;-64
2023/10/02 13:08:44;;;;;;;4.60;2.70;;;26.30;68.10;;;;;;5061060;28;20082;-65
2023/10/02 13:11:12;;;;;;;4.43;2.67;;;26.30;68.20;;;;;;5062001;28;20503;-65
2023/10/02 13:13:44;;;;;;;9.23;3.20;;;26.30;68.40;;;;;;5062649;28;20028;-65
2023/10/02 13:16:13;;;;;;;9.13;3.90;;;26.20;68.40;;;;;;5060078;28;20040;-70
2023/10/02 13:18:40;;;;;;;7.90;2.55;;;26.20;68.30;;;;;;5059527;28;20055;-70
2023/10/02 13:21:19;;;;;;;7.35;3.15;;;26.20;68.50;;;;;;5063990;28;20048;-71
2023/10/02 13:23:46;;;;;;;7.30;3.53;;;26.30;68.40;;;;;;5063840;28;20028;-70
2023/10/02 13:26:16;;;;;;;9.20;3.45;;;26.30;68.30;;;;;;5041719;28;20039;-70
2023/10/02 13:28:48;;;;;;;13.45;3.85;;;26.30;68.70;;;;;;5058766;28;20028;-70
2023/10/02 13:31:16;;;;;;;7.50;3.85;;;26.40;68.50;;;;;;5061651;28;20036;-70
2023/10/02 13:33:51;;;;;;;10.02;3.63;;;26.30;68.40;;;;;;5064033;28;20036;-70
2023/10/02 13:36:24;;;;;;;9.73;3.45;;;26.20;68.30;;;;;;5062578;28;20033;-70
2023/10/02 13:38:51;;;;;;;8.25;3.60;;;26.10;68.00;;;;;;5062052;28;20032;-70
2023/10/02 13:41:18;;;;;;;8.52;3.25;;;26.00;68.30;;;;;;5063623;28;20317;-70
2023/10/02 13:43:45;;;;;;;9.82;4.45;;;26.20;68.40;;;;;;5062940;28;20036;-70
2023/10/02 13:46:14;;;;;;;6.38;2.85;;;26.70;67.60;;;;;;5057630;28;20136;-69
2023/10/02 13:48:41;;;;;;;8.35;3.35;;;27.40;66.50;;;;;;5062469;28;20039;-70
2023/10/02 13:51:07;;;;;;;5.72;2.67;;;28.00;65.40;;;;;;5045110;28;20036;-69
2023/10/02 13:53:36;;;;;;;8.27;2.85;;;28.60;64.40;;;;;;5059502;28;20029;-69
2023/10/02 13:56:08;;;;;;;6.47;3.78;;;29.30;63.20;;;;;;5061914;28;20110;-70
2023/10/02 13:58:41;;;;;;;7.35;3.38;;;30.10;61.40;;;;;;5062982;28;20043;-71
2023/10/02 14:01:07;;;;;;;11.38;3.50;;;30.80;59.70;;;;;;5063889;28;20399;-71
2023/10/02 14:03:35;;;;;;;7.43;3.22;;;31.10;57.70;;;;;;5060729;28;20024;-69
2023/10/02 14:06:06;;;;;;;9.43;3.63;;;31.10;57.50;;;;;;5058983;28;20036;-64
2023/10/02 14:08:33;;;;;;;7.00;3.15;;;30.90;56.30;;;;;;5061322;28;20068;-65
2023/10/02 14:10:59;;;;;;;5.53;2.70;;;30.80;57.60;;;;;;5042957;28;20028;-65
2023/10/02 14:13:25;;;;;;;12.00;3.95;;;30.90;57.90;;;;;;5059571;28;20079;-66